Time;durP1;ratioP1;P1;durP2;ratioP2;P2;SDS_P1;SDS_P2;PMS_P1;PMS_P2;Temp;Humidity;BMP_temperature;BMP_pressure;BME280_temperature;BME280_humidity;BME280_pressure;Samples;Min_cycle;Max_cycle;Signal;HPM_P1;HPM_P2
2023/03/22 00:01:21;;;;;;;16.30;11.48;;;10.10;99.90;;;;;;5086060;28;20036;-35
2023/03/22 00:03:49;;;;;;;16.30;10.70;;;10.20;99.90;;;;;;5075274;28;20041;-35
2023/03/22 00:06:18;;;;;;;18.10;11.02;;;10.30;99.90;;;;;;5071597;28;20041;-35
2023/03/22 00:08:47;;;;;;;14.30;10.15;;;10.30;99.90;;;;;;5078459;28;20402;-35
2023/03/22 00:11:12;;;;;;;14.63;9.77;;;10.30;99.90;;;;;;5074784;28;20120;-36
2023/03/22 00:13:38;;;;;;;11.25;8.52;;;10.20;99.90;;;;;;5077072;28;20122;-35
2023/03/22 00:16:05;;;;;;;12.75;8.70;;;10.20;99.90;;;;;;5070380;28;20037;-36
2023/03/22 00:18:31;;;;;;;11.57;9.30;;;10.20;99.90;;;;;;5084284;28;20112;-35
2023/03/22 00:20:59;;;;;;;11.38;8.52;;;10.30;99.90;;;;;;5078227;28;20108;-36
2023/03/22 00:23:26;;;;;;;15.00;8.52;;;10.20;99.90;;;;;;5057859;28;20076;-36
2023/03/22 00:25:52;;;;;;;15.35;9.07;;;10.20;99.90;;;;;;5080348;28;20028;-35
2023/03/22 00:28:18;;;;;;;12.52;8.88;;;10.20;99.90;;;;;;5081158;28;20044;-36
2023/03/22 00:30:52;;;;;;;14.10;10.00;;;10.20;99.90;;;;;;5079629;28;20043;-36
2023/03/22 00:33:18;;;;;;;15.70;10.13;;;10.00;99.90;;;;;;5057021;28;20041;-35
2023/03/22 00:35:49;;;;;;;13.35;9.65;;;10.00;99.90;;;;;;5073856;28;20044;-35
2023/03/22 00:38:17;;;;;;;17.40;10.55;;;10.00;99.90;;;;;;5063694;28;20371;-35
2023/03/22 00:40:43;;;;;;;14.95;10.18;;;9.90;99.90;;;;;;5074320;28;20088;-35
2023/03/22 00:43:08;;;;;;;15.45;10.18;;;9.90;99.90;;;;;;5078324;28;20032;-35
2023/03/22 00:45:39;;;;;;;15.85;10.98;;;9.90;99.90;;;;;;5075230;28;20405;-35
2023/03/22 00:48:10;;;;;;;13.73;9.65;;;9.80;99.90;;;;;;5079342;28;20047;-36
2023/03/22 00:50:37;;;;;;;13.50;9.88;;;9.90;99.90;;;;;;5063692;28;20037;-35
2023/03/22 00:53:04;;;;;;;14.82;10.15;;;9.80;99.90;;;;;;5068274;28;20044;-35
2023/03/22 00:55:30;;;;;;;15.00;9.77;;;9.90;99.90;;;;;;5081283;28;20032;-35
2023/03/22 00:57:56;;;;;;;13.07;9.48;;;9.90;99.90;;;;;;5060367;28;20040;-35
2023/03/22 01:00:22;;;;;;;15.40;9.05;;;10.00;99.90;;;;;;5070276;28;20479;-34
2023/03/22 01:02:52;;;;;;;15.25;9.20;;;9.80;99.90;;;;;;5070584;28;20119;-33
2023/03/22 01:05:20;;;;;;;14.68;8.45;;;9.80;99.90;;;;;;5070547;28;20040;-33
2023/03/22 01:07:49;;;;;;;14.80;9.13;;;9.90;99.90;;;;;;5070381;28;20524;-34
2023/03/22 01:10:16;;;;;;;14.32;8.52;;;9.90;99.90;;;;;;5071452;28;20047;-34
2023/03/22 01:12:42;;;;;;;12.48;8.05;;;9.80;99.90;;;;;;5074401;28;20387;-33
2023/03/22 01:15:08;;;;;;;13.48;7.88;;;9.90;99.90;;;;;;5074158;28;20071;-34
2023/03/22 01:17:33;;;;;;;11.82;8.00;;;9.90;99.90;;;;;;5074352;28;20462;-33
2023/03/22 01:19:59;;;;;;;10.88;7.82;;;9.80;99.90;;;;;;5073911;28;20123;-34
2023/03/22 01:22:25;;;;;;;12.57;7.78;;;9.80;99.90;;;;;;5073873;28;20036;-33
2023/03/22 01:24:51;;;;;;;13.48;7.68;;;9.90;99.90;;;;;;5074126;28;20048;-34
2023/03/22 01:27:17;;;;;;;10.68;6.55;;;9.90;99.90;;;;;;5074079;28;20036;-34
2023/03/22 01:29:42;;;;;;;10.70;6.72;;;9.90;99.90;;;;;;5074121;28;20043;-33
2023/03/22 01:32:08;;;;;;;9.10;5.97;;;9.90;99.90;;;;;;5073962;28;20048;-34
2023/03/22 01:34:34;;;;;;;10.15;5.97;;;9.80;99.90;;;;;;5073841;28;20081;-34
2023/03/22 01:36:59;;;;;;;10.60;5.90;;;9.90;99.90;;;;;;5073591;28;20291;-34
2023/03/22 01:39:26;;;;;;;9.45;5.05;;;9.80;99.90;;;;;;5073742;28;20040;-33
2023/03/22 01:41:52;;;;;;;9.35;5.43;;;9.90;99.90;;;;;;5073863;28;20454;-34
2023/03/22 01:44:20;;;;;;;9.90;5.22;;;10.00;99.90;;;;;;5073583;28;20068;-34
2023/03/22 01:46:48;;;;;;;8.82;4.90;;;9.90;99.90;;;;;;5073981;28;20441;-34
2023/03/22 01:49:20;;;;;;;9.85;5.45;;;9.80;99.90;;;;;;5073801;28;20460;-33
2023/03/22 01:51:49;;;;;;;6.72;4.22;;;10.00;99.90;;;;;;5073536;28;20045;-33
2023/03/22 01:54:23;;;;;;;10.90;6.07;;;9.90;99.90;;;;;;5074185;28;20127;-34
2023/03/22 01:56:49;;;;;;;8.60;4.10;;;9.80;99.90;;;;;;5087207;28;20039;-34
2023/03/22 01:59:15;;;;;;;8.07;4.28;;;10.00;99.90;;;;;;5084114;28;20090;-34
2023/03/22 02:01:41;;;;;;;8.13;4.15;;;10.00;99.90;;;;;;5081555;28;20478;-34
2023/03/22 02:04:14;;;;;;;9.93;4.07;;;9.90;99.90;;;;;;5086511;28;20266;-35
2023/03/22 02:06:41;;;;;;;9.90;4.40;;;9.90;99.90;;;;;;5069723;28;20529;-35
2023/03/22 02:09:09;;;;;;;9.68;4.13;;;9.80;99.90;;;;;;5084262;28;20032;-34
2023/03/22 02:12:12;;;;;;;10.23;4.22;;;9.90;99.90;;;;;;5079233;28;20041;-35
2023/03/22 02:15:02;;;;;;;8.80;4.28;;;9.90;99.90;;;;;;5076828;28;20040;-34
2023/03/22 02:17:37;;;;;;;8.20;4.28;;;9.80;99.90;;;;;;5070375;28;20516;-34
2023/03/22 02:20:37;;;;;;;8.32;4.40;;;9.90;99.90;;;;;;5081002;28;20032;-34
2023/03/22 02:23:27;;;;;;;6.85;4.20;;;9.90;99.90;;;;;;5078246;28;20036;-35
2023/03/22 02:26:17;;;;;;;11.02;4.35;;;9.90;99.90;;;;;;5075715;28;20085;-34
2023/03/22 02:28:49;;;;;;;11.25;5.20;;;9.90;99.90;;;;;;5064767;28;20037;-34
2023/03/22 02:31:33;;;;;;;5.80;4.22;;;9.90;99.90;;;;;;5078083;28;20040;-35
2023/03/22 02:34:35;;;;;;;8.00;4.13;;;9.80;99.90;;;;;;5073007;28;20044;-35
2023/03/22 02:37:28;;;;;;;12.98;4.63;;;9.80;99.90;;;;;;5077592;28;20086;-35
2023/03/22 02:40:12;;;;;;;13.32;4.65;;;9.70;99.90;;;;;;5056678;28;20102;-34
2023/03/22 02:43:16;;;;;;;14.02;4.35;;;9.80;99.90;;;;;;5074430;28;20040;-34
2023/03/22 02:46:01;;;;;;;5.18;3.90;;;9.80;99.90;;;;;;5039686;28;20181;-34
2023/03/22 02:48:51;;;;;;;12.23;4.70;;;9.80;99.90;;;;;;5043013;28;20061;-34
2023/03/22 02:51:23;;;;;;;8.20;4.30;;;9.80;99.90;;;;;;5066363;28;20493;-35
2023/03/22 02:53:59;;;;;;;8.32;4.10;;;9.70;99.90;;;;;;5081651;28;20028;-35
2023/03/22 02:56:33;;;;;;;8.02;4.20;;;9.60;99.90;;;;;;5071621;28;20049;-34
2023/03/22 02:59:03;;;;;;;9.27;4.43;;;9.60;99.90;;;;;;5066207;28;20039;-34
2023/03/22 03:01:32;;;;;;;6.82;4.25;;;9.70;99.90;;;;;;5066065;28;20091;-34
2023/03/22 03:04:03;;;;;;;10.02;4.32;;;9.60;99.90;;;;;;5079409;28;20043;-34
2023/03/22 03:06:34;;;;;;;13.68;4.85;;;9.50;99.90;;;;;;5066645;28;20044;-34
2023/03/22 03:09:03;;;;;;;8.38;4.18;;;9.60;99.90;;;;;;5074493;28;20037;-34
2023/03/22 03:11:30;;;;;;;10.25;4.95;;;9.60;99.90;;;;;;5072996;28;20039;-34
2023/03/22 03:13:56;;;;;;;10.10;4.40;;;9.70;99.90;;;;;;5083452;28;20098;-35
2023/03/22 03:16:26;;;;;;;9.60;5.28;;;9.60;99.90;;;;;;5077265;28;20119;-35
2023/03/22 03:19:19;;;;;;;11.38;5.40;;;9.50;99.90;;;;;;5079040;28;20036;-35
2023/03/22 03:21:51;;;;;;;8.95;4.55;;;9.60;99.90;;;;;;5073490;28;20033;-35
2023/03/22 03:24:31;;;;;;;9.95;4.70;;;9.60;99.90;;;;;;5081778;28;20036;-34
2023/03/22 03:27:06;;;;;;;13.55;4.95;;;9.60;99.90;;;;;;5075352;28;20050;-35
2023/03/22 03:29:40;;;;;;;11.52;5.00;;;9.60;99.90;;;;;;5077445;28;20032;-34
2023/03/22 03:32:20;;;;;;;9.82;5.38;;;9.60;99.90;;;;;;5071509;28;20037;-34
2023/03/22 03:34:56;;;;;;;8.50;4.78;;;9.60;99.90;;;;;;5079214;28;20494;-34
2023/03/22 03:37:27;;;;;;;7.15;4.28;;;9.60;99.90;;;;;;5077519;28;20036;-34
2023/03/22 03:40:08;;;;;;;10.48;5.18;;;9.60;99.90;;;;;;5075205;28;20486;-35
2023/03/22 03:42:38;;;;;;;9.50;4.75;;;9.60;99.90;;;;;;5072905;28;20032;-34
2023/03/22 03:45:05;;;;;;;8.30;4.75;;;9.50;99.90;;;;;;5066682;28;20072;-34
2023/03/22 03:47:31;;;;;;;8.93;4.82;;;9.50;99.90;;;;;;5077406;28;20457;-34
2023/03/22 03:49:57;;;;;;;8.90;4.88;;;9.50;99.90;;;;;;5072048;28;20489;-34
2023/03/22 03:52:25;;;;;;;9.43;4.85;;;9.60;99.90;;;;;;5079664;28;20039;-34
2023/03/22 03:54:51;;;;;;;10.90;5.10;;;9.60;99.90;;;;;;5075197;28;20045;-34
2023/03/22 03:57:16;;;;;;;10.85;5.45;;;9.50;99.90;;;;;;5073836;28;20513;-34
2023/03/22 03:59:42;;;;;;;9.68;5.43;;;9.60;99.90;;;;;;5081905;28;20028;-35
2023/03/22 04:02:08;;;;;;;7.00;5.32;;;9.60;99.90;;;;;;5079614;28;20035;-34
2023/03/22 04:04:34;;;;;;;11.52;5.90;;;9.70;99.90;;;;;;5073932;28;20093;-35
2023/03/22 04:07:02;;;;;;;10.25;5.50;;;9.70;99.90;;;;;;5082127;28;20036;-34
2023/03/22 04:09:31;;;;;;;9.15;6.05;;;9.70;99.90;;;;;;5071537;28;20075;-34
2023/03/22 04:11:57;;;;;;;9.32;5.75;;;9.70;99.90;;;;;;5072836;28;20041;-35
2023/03/22 04:14:24;;;;;;;9.63;6.45;;;9.70;99.90;;;;;;5075395;28;20025;-35
2023/03/22 04:16:50;;;;;;;12.13;6.82;;;9.80;99.90;;;;;;5075330;28;20394;-35
2023/03/22 04:19:16;;;;;;;13.68;8.07;;;9.80;99.90;;;;;;5080288;28;20036;-34
2023/03/22 04:21:42;;;;;;;11.07;7.78;;;9.80;99.90;;;;;;5076391;28;20037;-35
2023/03/22 04:24:08;;;;;;;11.55;8.90;;;9.80;99.90;;;;;;5069627;28;20079;-35
2023/03/22 04:26:34;;;;;;;10.98;8.35;;;9.90;99.90;;;;;;5087366;28;20119;-35
2023/03/22 04:29:03;;;;;;;16.08;9.68;;;9.80;99.90;;;;;;5077994;28;20037;-34
2023/03/22 04:31:30;;;;;;;18.27;10.10;;;9.80;99.90;;;;;;5077150;28;20102;-34
2023/03/22 04:33:56;;;;;;;12.02;9.60;;;9.80;99.90;;;;;;5064215;28;20447;-34
2023/03/22 04:36:24;;;;;;;20.95;11.15;;;9.90;99.90;;;;;;5069248;28;20524;-34
2023/03/22 04:38:50;;;;;;;14.20;10.90;;;9.90;99.90;;;;;;5074875;28;20451;-34
2023/03/22 04:41:17;;;;;;;14.65;11.00;;;9.80;99.90;;;;;;5071401;28;20414;-34
2023/03/22 04:43:45;;;;;;;15.98;10.82;;;9.90;99.90;;;;;;5078329;28;20112;-35
2023/03/22 04:46:12;;;;;;;15.88;10.93;;;9.90;99.90;;;;;;5057237;28;20662;-34
2023/03/22 04:48:40;;;;;;;18.05;12.27;;;9.80;99.90;;;;;;5086627;28;20040;-34
2023/03/22 04:51:08;;;;;;;17.52;12.52;;;9.90;99.90;;;;;;5074340;28;20064;-34
2023/03/22 04:53:39;;;;;;;18.15;12.55;;;9.90;99.90;;;;;;5077416;28;20123;-34
2023/03/22 04:56:08;;;;;;;15.68;11.55;;;9.80;99.90;;;;;;5080528;28;20115;-34
2023/03/22 04:58:36;;;;;;;17.63;13.50;;;9.80;99.90;;;;;;5073406;28;20043;-34
2023/03/22 05:01:02;;;;;;;21.17;12.35;;;9.80;99.90;;;;;;5075885;28;20047;-34
2023/03/22 05:03:27;;;;;;;19.25;13.27;;;9.90;99.90;;;;;;5086502;28;20040;-35
2023/03/22 05:05:56;;;;;;;16.55;12.93;;;9.90;99.90;;;;;;5081113;28;20300;-35
2023/03/22 05:08:26;;;;;;;18.65;13.57;;;9.80;99.90;;;;;;5078977;28;20189;-35
2023/03/22 05:10:53;;;;;;;19.40;13.13;;;9.90;99.90;;;;;;5086939;28;20028;-35
2023/03/22 05:13:20;;;;;;;17.67;13.00;;;9.90;99.90;;;;;;5075383;28;20043;-35
2023/03/22 05:15:48;;;;;;;17.80;13.10;;;9.80;99.90;;;;;;5084171;28;20110;-34
2023/03/22 05:18:15;;;;;;;18.88;13.25;;;9.80;99.90;;;;;;5084221;28;20044;-34
2023/03/22 05:20:42;;;;;;;17.08;13.02;;;9.80;99.90;;;;;;5082725;28;20085;-35
2023/03/22 05:23:12;;;;;;;18.35;13.68;;;9.90;99.90;;;;;;5078002;28;20044;-35
2023/03/22 05:25:38;;;;;;;18.98;13.18;;;9.80;99.90;;;;;;5063001;28;20045;-34
2023/03/22 05:28:07;;;;;;;20.05;14.02;;;9.80;99.90;;;;;;5082332;28;20093;-35
2023/03/22 05:30:33;;;;;;;18.42;13.88;;;9.80;99.90;;;;;;5072417;28;20041;-34
2023/03/22 05:33:02;;;;;;;16.42;12.80;;;9.90;99.90;;;;;;5081672;28;20040;-34
2023/03/22 05:35:32;;;;;;;17.05;13.02;;;9.90;99.90;;;;;;5082807;28;20123;-37
2023/03/22 05:37:57;;;;;;;19.55;13.90;;;9.80;99.90;;;;;;5072510;28;20045;-35
2023/03/22 05:40:26;;;;;;;17.67;14.52;;;9.80;99.90;;;;;;5065083;28;20085;-35
2023/03/22 05:42:53;;;;;;;20.48;13.65;;;9.80;99.90;;;;;;5063706;28;20434;-35
2023/03/22 05:45:20;;;;;;;19.10;13.70;;;9.80;99.90;;;;;;5073397;28;20124;-34
2023/03/22 05:47:46;;;;;;;18.52;12.50;;;9.90;99.90;;;;;;5072932;28;20080;-36
2023/03/22 05:50:16;;;;;;;19.80;12.35;;;10.00;99.90;;;;;;5074336;28;20041;-35
2023/03/22 05:52:43;;;;;;;16.90;12.73;;;9.90;99.90;;;;;;5063323;28;20047;-35
2023/03/22 05:55:11;;;;;;;16.85;12.43;;;10.00;99.90;;;;;;5061279;28;20041;-35
2023/03/22 05:57:37;;;;;;;16.77;12.85;;;9.90;99.90;;;;;;5080887;28;20036;-35
2023/03/22 06:00:08;;;;;;;16.13;12.73;;;10.00;99.90;;;;;;5076252;28;20112;-34
2023/03/22 06:02:34;;;;;;;18.98;12.43;;;10.00;99.90;;;;;;5069976;28;20116;-35
2023/03/22 06:05:00;;;;;;;19.13;12.55;;;9.90;99.90;;;;;;5065564;28;20148;-35
2023/03/22 06:07:25;;;;;;;17.42;12.40;;;10.00;99.90;;;;;;5073936;28;20043;-35
2023/03/22 06:09:51;;;;;;;18.08;12.93;;;10.00;99.90;;;;;;5057029;28;20041;-34
2023/03/22 06:12:18;;;;;;;15.77;13.18;;;10.10;99.90;;;;;;5063210;28;20044;-35
2023/03/22 06:14:44;;;;;;;15.93;11.82;;;9.90;99.90;;;;;;5073491;28;20072;-35
2023/03/22 06:17:10;;;;;;;19.60;13.98;;;9.90;99.90;;;;;;5059392;28;20079;-35
2023/03/22 06:19:36;;;;;;;18.65;11.85;;;9.90;99.90;;;;;;5063751;28;20043;-35
2023/03/22 06:22:02;;;;;;;14.40;11.43;;;10.10;99.90;;;;;;5068335;28;20032;-35
2023/03/22 06:24:28;;;;;;;15.65;10.80;;;10.10;99.90;;;;;;5060084;28;20393;-34
2023/03/22 06:26:53;;;;;;;14.30;11.07;;;10.10;99.90;;;;;;5057658;28;20454;-35
2023/03/22 06:29:19;;;;;;;16.83;11.75;;;10.00;99.90;;;;;;5085125;28;20047;-35
2023/03/22 06:31:46;;;;;;;16.58;10.75;;;10.20;99.90;;;;;;5069463;28;20043;-35
2023/03/22 06:34:12;;;;;;;15.00;10.65;;;10.10;99.90;;;;;;5060130;28;20389;-35
2023/03/22 06:36:37;;;;;;;14.75;10.07;;;10.20;99.90;;;;;;5059167;28;20055;-35
2023/03/22 06:39:04;;;;;;;13.07;10.38;;;10.20;99.90;;;;;;5052632;28;20037;-35
2023/03/22 06:41:30;;;;;;;14.65;9.93;;;10.20;99.90;;;;;;5068924;28;20381;-35
2023/03/22 06:43:55;;;;;;;14.40;11.07;;;10.10;99.90;;;;;;5067357;28;20768;-36
2023/03/22 06:46:21;;;;;;;13.60;10.35;;;10.20;99.90;;;;;;5072609;28;20124;-35
2023/03/22 06:48:47;;;;;;;14.40;10.10;;;10.20;99.90;;;;;;5072272;28;20530;-35
2023/03/22 06:51:16;;;;;;;14.18;8.82;;;10.20;99.90;;;;;;5066401;28;20041;-34
2023/03/22 06:53:41;;;;;;;17.15;9.82;;;10.40;99.90;;;;;;5066197;28;20041;-35
2023/03/22 06:56:07;;;;;;;13.73;9.63;;;10.40;99.90;;;;;;5058930;28;20047;-35
2023/03/22 06:58:33;;;;;;;11.20;8.35;;;10.50;99.90;;;;;;5070264;28;20074;-35
2023/03/22 07:00:59;;;;;;;10.68;7.70;;;10.60;99.90;;;;;;5069135;28;20044;-34
2023/03/22 07:03:24;;;;;;;11.40;7.25;;;10.60;99.90;;;;;;5065706;28;20036;-35
2023/03/22 07:05:50;;;;;;;11.20;7.90;;;10.60;99.90;;;;;;5072387;28;20040;-35
2023/03/22 07:08:16;;;;;;;12.10;7.85;;;10.80;99.90;;;;;;5071145;28;20516;-35
2023/03/22 07:10:42;;;;;;;10.55;7.43;;;10.80;99.90;;;;;;5062584;28;20041;-35
2023/03/22 07:13:08;;;;;;;8.98;6.78;;;10.90;99.90;;;;;;5051585;28;20123;-35
2023/03/22 07:15:35;;;;;;;10.80;7.75;;;11.00;99.90;;;;;;5052102;28;20126;-36
2023/03/22 07:18:01;;;;;;;9.73;6.75;;;10.90;99.90;;;;;;5085074;28;20047;-35
2023/03/22 07:20:27;;;;;;;12.82;6.70;;;11.00;99.90;;;;;;5060632;28;20414;-35
2023/03/22 07:22:53;;;;;;;10.27;6.55;;;11.00;99.90;;;;;;5069966;28;20039;-35
2023/03/22 07:25:19;;;;;;;10.52;6.18;;;11.20;99.90;;;;;;5050891;28;20098;-35
2023/03/22 07:27:44;;;;;;;9.93;5.88;;;11.10;99.90;;;;;;5057347;28;20043;-35
2023/03/22 07:30:11;;;;;;;8.90;6.07;;;11.10;99.90;;;;;;5065164;28;20037;-35
2023/03/22 07:32:40;;;;;;;13.57;5.55;;;11.10;99.90;;;;;;5067268;28;20075;-35
2023/03/22 07:35:06;;;;;;;10.40;5.95;;;11.10;99.90;;;;;;5069429;28;20309;-35
2023/03/22 07:37:31;;;;;;;8.23;5.18;;;11.10;99.90;;;;;;5074787;28;20087;-35
2023/03/22 07:39:57;;;;;;;8.30;5.43;;;11.20;99.90;;;;;;5051002;28;20052;-35
2023/03/22 07:42:23;;;;;;;9.60;5.53;;;11.20;99.90;;;;;;5069520;28;20035;-34
2023/03/22 07:44:48;;;;;;;9.38;5.50;;;11.20;99.90;;;;;;5073081;28;20036;-35
2023/03/22 07:47:14;;;;;;;5.82;4.60;;;11.20;99.90;;;;;;5069265;28;20119;-34
2023/03/22 07:49:40;;;;;;;10.90;4.80;;;11.30;99.90;;;;;;5060586;28;20041;-35
2023/03/22 07:52:06;;;;;;;11.32;5.50;;;11.50;99.90;;;;;;5071030;28;20043;-34
2023/03/22 07:54:32;;;;;;;7.22;4.95;;;11.70;99.90;;;;;;5070797;28;20028;-35
2023/03/22 07:56:58;;;;;;;7.45;5.10;;;11.70;99.90;;;;;;5070937;28;20055;-35
2023/03/22 07:59:23;;;;;;;13.07;5.32;;;11.70;99.90;;;;;;5052302;28;20389;-35
2023/03/22 08:01:49;;;;;;;7.20;4.32;;;11.70;99.90;;;;;;5051165;28;20037;-34
2023/03/22 08:04:15;;;;;;;8.38;4.57;;;11.70;99.90;;;;;;5052364;28;20033;-35
2023/03/22 08:06:41;;;;;;;8.88;6.03;;;11.70;99.90;;;;;;5050976;28;20049;-34
2023/03/22 08:09:07;;;;;;;8.35;4.70;;;11.60;99.90;;;;;;5050898;28;20037;-35
2023/03/22 08:11:34;;;;;;;9.00;5.30;;;11.40;99.90;;;;;;5053991;28;20493;-35
2023/03/22 08:14:00;;;;;;;11.27;4.80;;;11.30;99.90;;;;;;5070991;28;20094;-35
2023/03/22 08:16:26;;;;;;;7.43;4.40;;;11.50;99.90;;;;;;5069714;28;20441;-35
2023/03/22 08:18:51;;;;;;;9.43;4.82;;;11.40;99.90;;;;;;5066415;28;20037;-35
2023/03/22 08:21:17;;;;;;;9.18;4.78;;;11.30;99.90;;;;;;5058205;28;20059;-34
2023/03/22 08:23:43;;;;;;;9.48;4.60;;;11.30;99.90;;;;;;5070947;28;20036;-35
2023/03/22 08:26:09;;;;;;;10.90;4.72;;;11.40;99.90;;;;;;5059389;28;20060;-35
2023/03/22 08:28:35;;;;;;;9.32;4.32;;;11.50;99.90;;;;;;5050808;28;20450;-34
2023/03/22 08:31:08;;;;;;;6.18;4.20;;;11.40;99.90;;;;;;5059893;28;20494;-34
2023/03/22 08:33:34;;;;;;;7.90;4.47;;;11.40;99.90;;;;;;5070621;28;20047;-35
2023/03/22 08:36:13;;;;;;;7.22;4.50;;;11.40;99.90;;;;;;5070467;28;20024;-35
2023/03/22 08:38:38;;;;;;;6.78;4.53;;;11.30;99.90;;;;;;5050898;28;20033;-35
2023/03/22 08:41:04;;;;;;;11.55;4.95;;;11.40;99.90;;;;;;5076356;28;20036;-35
2023/03/22 08:43:29;;;;;;;8.60;4.28;;;11.50;99.90;;;;;;5070235;28;20068;-35
2023/03/22 08:45:56;;;;;;;8.25;4.18;;;11.30;99.90;;;;;;5069605;28;20111;-36
2023/03/22 08:48:22;;;;;;;6.15;4.32;;;11.30;99.90;;;;;;5064538;28;20037;-35
2023/03/22 08:50:47;;;;;;;8.50;3.97;;;11.50;99.90;;;;;;5050409;28;20051;-35
2023/03/22 08:53:13;;;;;;;5.35;3.80;;;11.40;99.90;;;;;;5050269;28;20047;-35
2023/03/22 08:55:43;;;;;;;7.55;4.15;;;11.40;99.90;;;;;;5066715;28;20111;-34
2023/03/22 08:58:13;;;;;;;8.13;3.97;;;11.50;99.90;;;;;;5070445;28;20524;-35
2023/03/22 09:00:40;;;;;;;7.03;3.75;;;11.50;99.90;;;;;;5070263;28;20033;-35
2023/03/22 09:03:06;;;;;;;9.38;4.00;;;11.50;99.90;;;;;;5059552;28;20486;-36
2023/03/22 09:05:31;;;;;;;6.97;4.13;;;11.60;99.90;;;;;;5070527;28;20039;-35
2023/03/22 09:07:57;;;;;;;10.90;4.70;;;11.80;99.90;;;;;;5052552;28;20055;-35
2023/03/22 09:10:23;;;;;;;10.20;4.38;;;11.90;99.90;;;;;;5062949;28;20041;-35
2023/03/22 09:12:48;;;;;;;10.10;4.07;;;12.30;99.90;;;;;;5070652;28;20116;-34
2023/03/22 09:15:14;;;;;;;7.20;3.85;;;12.40;99.90;;;;;;5068219;28;20086;-35
2023/03/22 09:17:40;;;;;;;7.47;4.03;;;12.50;99.90;;;;;;5063721;28;20116;-36
2023/03/22 09:20:06;;;;;;;5.57;3.80;;;12.60;99.90;;;;;;5078350;28;20368;-35
2023/03/22 09:22:32;;;;;;;9.13;3.97;;;12.60;99.90;;;;;;5062052;28;20033;-35
2023/03/22 09:24:57;;;;;;;6.72;3.97;;;12.40;99.90;;;;;;5051715;28;20048;-35
2023/03/22 09:27:23;;;;;;;8.95;3.63;;;12.30;99.90;;;;;;5070222;28;20075;-35
2023/03/22 09:29:51;;;;;;;6.88;4.10;;;12.20;99.90;;;;;;5056720;28;20425;-35
2023/03/22 09:32:17;;;;;;;9.32;3.95;;;12.30;99.90;;;;;;5072359;28;20043;-34
2023/03/22 09:34:43;;;;;;;11.88;3.80;;;12.30;99.90;;;;;;5073873;28;20024;-35
2023/03/22 09:37:11;;;;;;;8.02;3.90;;;12.30;99.90;;;;;;5079287;28;20047;-35
2023/03/22 09:39:38;;;;;;;6.93;3.63;;;12.20;99.90;;;;;;5074121;28;20047;-35
2023/03/22 09:42:20;;;;;;;9.00;3.83;;;12.40;99.90;;;;;;5074292;28;20101;-35
2023/03/22 09:44:49;;;;;;;8.10;4.25;;;12.30;99.90;;;;;;5073553;28;20509;-35
2023/03/22 09:47:20;;;;;;;11.40;4.28;;;12.30;99.90;;;;;;5068561;28;20097;-35
2023/03/22 09:49:50;;;;;;;9.57;3.90;;;12.30;99.90;;;;;;5053741;28;20055;-35
2023/03/22 09:52:16;;;;;;;8.32;3.83;;;12.40;99.90;;;;;;5063254;28;20469;-34
2023/03/22 09:54:45;;;;;;;6.18;3.65;;;12.10;99.90;;;;;;5053083;28;20565;-34
2023/03/22 09:57:36;;;;;;;10.35;4.05;;;12.20;99.90;;;;;;5057582;28;20120;-34
2023/03/22 10:00:22;;;;;;;5.72;3.80;;;12.10;99.90;;;;;;5053431;28;20433;-34
2023/03/22 10:02:51;;;;;;;10.32;3.80;;;12.20;99.90;;;;;;5086994;28;20071;-35
2023/03/22 10:05:30;;;;;;;8.13;3.97;;;12.20;99.90;;;;;;5082649;28;20043;-35
2023/03/22 10:08:14;;;;;;;8.55;4.00;;;12.10;99.90;;;;;;5059139;28;20064;-34
2023/03/22 10:10:43;;;;;;;7.72;3.72;;;12.20;99.90;;;;;;5073632;28;20044;-33
2023/03/22 10:13:34;;;;;;;9.23;4.47;;;12.00;99.90;;;;;;5073301;28;20036;-34
2023/03/22 10:16:09;;;;;;;9.50;3.95;;;12.10;99.90;;;;;;5081200;28;20043;-35
2023/03/22 10:18:39;;;;;;;10.00;4.50;;;11.90;99.90;;;;;;5078837;28;20028;-35
2023/03/22 10:21:08;;;;;;;7.40;3.85;;;11.80;99.90;;;;;;5080996;28;20134;-36
2023/03/22 10:23:59;;;;;;;13.13;4.82;;;12.00;99.90;;;;;;5071167;28;20502;-35
2023/03/22 10:26:41;;;;;;;6.45;4.55;;;11.80;99.90;;;;;;5067805;28;20438;-36
2023/03/22 10:29:37;;;;;;;8.35;4.22;;;11.90;99.90;;;;;;5078732;28;20045;-35
2023/03/22 10:32:49;;;;;;;11.25;4.43;;;11.70;99.90;;;;;;5082879;28;20037;-36
2023/03/22 10:35:15;;;;;;;7.30;4.00;;;11.90;99.90;;;;;;5068844;28;20394;-35
2023/03/22 10:37:45;;;;;;;8.80;4.15;;;11.70;99.90;;;;;;5083460;28;20111;-36
2023/03/22 10:40:35;;;;;;;9.20;4.18;;;11.80;99.90;;;;;;5064283;28;20575;-35
2023/03/22 10:43:11;;;;;;;6.47;3.72;;;11.80;99.90;;;;;;5081839;28;20106;-35
2023/03/22 10:45:38;;;;;;;7.22;4.40;;;11.70;99.90;;;;;;5062832;28;20124;-35
2023/03/22 10:48:13;;;;;;;9.13;4.70;;;11.80;99.90;;;;;;5075144;28;20486;-36
2023/03/22 10:50:42;;;;;;;7.68;4.53;;;11.70;99.90;;;;;;5079058;28;20458;-35
2023/03/22 10:53:23;;;;;;;7.75;4.07;;;11.50;99.90;;;;;;5069054;28;20077;-35
2023/03/22 10:55:49;;;;;;;10.50;4.05;;;11.60;99.90;;;;;;5074114;28;20132;-35
2023/03/22 10:58:16;;;;;;;12.23;5.28;;;11.50;99.90;;;;;;5072369;28;20574;-36
2023/03/22 11:00:58;;;;;;;8.68;4.45;;;11.50;99.90;;;;;;5081377;28;20115;-36
2023/03/22 11:03:35;;;;;;;9.02;4.50;;;11.50;99.90;;;;;;5075320;28;20043;-35
2023/03/22 11:06:21;;;;;;;6.88;3.95;;;11.50;99.90;;;;;;5084458;28;20116;-35
2023/03/22 11:08:57;;;;;;;7.03;3.80;;;11.50;99.90;;;;;;5068736;28;20104;-35
2023/03/22 11:11:27;;;;;;;10.73;5.13;;;11.50;99.90;;;;;;5067369;28;20536;-35
2023/03/22 11:14:00;;;;;;;8.15;4.38;;;11.40;99.90;;;;;;5080669;28;20154;-35
2023/03/22 11:16:27;;;;;;;12.55;5.03;;;11.50;99.90;;;;;;5078616;28;20036;-36
2023/03/22 11:18:54;;;;;;;8.38;5.10;;;11.40;99.90;;;;;;5081077;28;20032;-36
2023/03/22 11:21:27;;;;;;;10.52;4.82;;;11.40;99.90;;;;;;5071893;28;20116;-35
2023/03/22 11:23:59;;;;;;;8.32;4.28;;;11.50;99.90;;;;;;5071743;28;20087;-35
2023/03/22 11:26:33;;;;;;;10.20;4.25;;;11.50;99.90;;;;;;5079530;28;20042;-35
2023/03/22 11:29:04;;;;;;;7.53;4.05;;;11.40;99.90;;;;;;5060556;28;20480;-36
2023/03/22 11:31:52;;;;;;;6.93;4.47;;;11.40;99.90;;;;;;5073124;28;20115;-35
2023/03/22 11:34:21;;;;;;;10.27;4.22;;;11.40;99.90;;;;;;5073709;28;20044;-35
2023/03/22 11:36:53;;;;;;;7.82;4.40;;;11.30;99.90;;;;;;5077643;28;20554;-35
2023/03/22 11:39:23;;;;;;;7.15;4.20;;;11.40;99.90;;;;;;5081450;28;20037;-36
2023/03/22 11:41:50;;;;;;;5.55;3.70;;;11.40;99.90;;;;;;5082708;28;20036;-37
2023/03/22 11:44:20;;;;;;;9.18;4.30;;;11.30;99.90;;;;;;5074747;28;20449;-35
2023/03/22 11:46:54;;;;;;;5.05;3.78;;;11.30;99.90;;;;;;5072213;28;20068;-36
2023/03/22 11:49:27;;;;;;;7.68;4.70;;;11.30;99.90;;;;;;5080660;28;20477;-36
2023/03/22 11:51:54;;;;;;;9.45;4.20;;;11.20;99.90;;;;;;5078047;28;20039;-36
2023/03/22 11:54:33;;;;;;;6.15;4.20;;;11.20;99.90;;;;;;5080383;28;20041;-36
2023/03/22 11:57:03;;;;;;;5.97;4.00;;;11.20;99.90;;;;;;5077459;28;20032;-36
2023/03/22 11:59:44;;;;;;;10.70;4.40;;;11.10;99.90;;;;;;5072401;28;20153;-36
2023/03/22 12:02:22;;;;;;;10.18;4.75;;;11.30;99.90;;;;;;5075572;28;20416;-36
2023/03/22 12:04:52;;;;;;;8.70;4.47;;;11.40;99.90;;;;;;5077774;28;20109;-36
2023/03/22 12:07:20;;;;;;;6.82;4.47;;;11.40;99.90;;;;;;5081424;28;20086;-36
2023/03/22 12:10:12;;;;;;;7.22;4.47;;;11.50;99.90;;;;;;5073996;28;20040;-37
2023/03/22 12:12:50;;;;;;;7.55;3.85;;;11.60;99.90;;;;;;5069309;28;20119;-36
2023/03/22 12:15:47;;;;;;;6.68;4.05;;;11.40;99.90;;;;;;5075023;28;20040;-35
2023/03/22 12:18:31;;;;;;;10.60;3.92;;;11.30;99.90;;;;;;5073431;28;20394;-35
2023/03/22 12:20:58;;;;;;;10.05;3.95;;;11.50;99.90;;;;;;5079569;28;20039;-36
2023/03/22 12:23:30;;;;;;;8.18;4.20;;;11.40;99.90;;;;;;5054493;28;20036;-35
2023/03/22 12:25:58;;;;;;;7.55;4.28;;;11.50;99.90;;;;;;5077342;28;20541;-35
2023/03/22 12:28:31;;;;;;;6.32;3.60;;;11.40;99.90;;;;;;5070279;28;20482;-35
2023/03/22 12:30:58;;;;;;;6.28;3.70;;;11.30;99.90;;;;;;5068533;28;20406;-35
2023/03/22 12:33:36;;;;;;;5.78;4.10;;;11.50;99.90;;;;;;5078189;28;20055;-35
2023/03/22 12:36:04;;;;;;;11.05;3.90;;;11.30;99.90;;;;;;5067858;28;20482;-35
2023/03/22 12:38:40;;;;;;;6.35;3.97;;;11.40;99.90;;;;;;5072403;28;20036;-35
2023/03/22 12:41:11;;;;;;;6.38;4.05;;;11.30;99.90;;;;;;5070567;28;20387;-35
2023/03/22 12:44:08;;;;;;;9.50;4.47;;;11.30;99.90;;;;;;5060044;28;20116;-35
2023/03/22 12:46:42;;;;;;;5.30;3.72;;;11.30;99.90;;;;;;5059850;28;20038;-35
2023/03/22 12:49:18;;;;;;;7.45;3.40;;;11.40;99.90;;;;;;5074711;28;20048;-36
2023/03/22 12:51:45;;;;;;;5.45;3.38;;;11.30;99.90;;;;;;5078791;28;20042;-35
2023/03/22 12:54:12;;;;;;;6.07;3.47;;;11.40;99.90;;;;;;5078130;28;20047;-35
2023/03/22 12:56:45;;;;;;;6.60;3.20;;;11.30;99.90;;;;;;5082224;28;20505;-35
2023/03/22 12:59:21;;;;;;;5.65;2.88;;;11.30;99.90;;;;;;5071942;28;20037;-36